createdAt,value
2023-03-23T06:01:13.732Z,94811.00
2023-03-23T06:05:13.699Z,94803.00
2023-03-23T06:09:13.683Z,94797.00
2023-03-23T06:13:13.620Z,94809.00
2023-03-23T06:17:13.618Z,94809.00
2023-03-23T06:21:18.518Z,94801.00
2023-03-23T06:25:14.506Z,94803.00
2023-03-23T06:29:13.504Z,94793.00
2023-03-23T06:33:13.469Z,94787.00
2023-03-23T06:37:13.388Z,94785.00
2023-03-23T06:41:13.391Z,94787.00
2023-03-23T06:45:13.326Z,94789.00
2023-03-23T06:49:13.297Z,94791.00
2023-03-23T06:53:13.270Z,94783.00
2023-03-23T06:57:13.332Z,94777.00
2023-03-23T07:01:13.519Z,94773.00
2023-03-23T07:05:13.469Z,94783.00
2023-03-23T07:09:13.421Z,94797.00
2023-03-23T07:13:13.365Z,94797.00
2023-03-23T07:17:13.352Z,94797.00
2023-03-23T07:21:13.303Z,94799.00
2023-03-23T07:25:13.257Z,94791.00
2023-03-23T07:29:13.254Z,94795.00
2023-03-23T07:33:13.178Z,94791.00
2023-03-23T07:37:13.143Z,94791.00
2023-03-23T07:41:13.106Z,94801.00
2023-03-23T07:45:13.095Z,94799.00
2023-03-23T07:49:13.020Z,94797.00
2023-03-23T07:53:13.001Z,94795.00
2023-03-23T07:57:13.058Z,94805.00
2023-03-23T08:01:12.918Z,94811.00
2023-03-23T08:05:12.909Z,94809.00
2023-03-23T08:09:12.854Z,94809.00
2023-03-23T08:13:12.938Z,94811.00
2023-03-23T08:17:12.753Z,94807.00
2023-03-23T08:21:12.717Z,94803.00
2023-03-23T08:25:12.647Z,94807.00
2023-03-23T08:29:12.664Z,94805.00
2023-03-23T08:33:12.601Z,94811.00
2023-03-23T08:37:12.562Z,94820.00
2023-03-23T08:41:12.560Z,94818.00
2023-03-23T08:45:12.475Z,94822.00
2023-03-23T08:49:12.445Z,94824.00
2023-03-23T08:53:12.397Z,94822.00
2023-03-23T08:57:12.367Z,94812.00
2023-03-23T09:01:12.331Z,94812.00
2023-03-23T09:05:12.271Z,94812.00
2023-03-23T09:09:12.220Z,94801.00
2023-03-23T09:13:12.217Z,94801.00
2023-03-23T09:17:12.150Z,94812.00
2023-03-23T09:21:19.316Z,94811.00
2023-03-23T09:25:13.455Z,94818.00
2023-03-23T09:29:12.137Z,94816.00
2023-03-23T09:33:12.037Z,94803.00
2023-03-23T09:37:11.980Z,94803.00
2023-03-23T09:41:12.071Z,94805.00
2023-03-23T09:45:12.053Z,94799.00
2023-03-23T09:49:12.072Z,94793.00
2023-03-23T09:53:12.031Z,94785.00
2023-03-23T09:57:12.077Z,94781.00
2023-03-23T10:01:12.059Z,94775.00
2023-03-23T10:05:12.102Z,94769.00
2023-03-23T10:09:12.138Z,94760.00
2023-03-23T10:13:12.135Z,94762.00
2023-03-23T10:17:12.155Z,94752.00
2023-03-23T10:21:12.114Z,94738.00
2023-03-23T10:25:12.126Z,94730.00
2023-03-23T10:29:12.142Z,94722.00
2023-03-23T10:33:12.201Z,94709.00
2023-03-23T10:37:12.332Z,94705.00
2023-03-23T10:41:12.483Z,94697.00
2023-03-23T10:45:12.471Z,94685.00
2023-03-23T10:49:12.478Z,94677.00
2023-03-23T10:53:12.500Z,94681.00
2023-03-23T10:57:12.575Z,94677.00
2023-03-23T11:01:12.679Z,94675.00
2023-03-23T11:05:20.037Z,94671.00
2023-03-23T11:09:13.693Z,94671.00
2023-03-23T11:13:12.622Z,94665.00
2023-03-23T11:17:15.874Z,94665.00
2023-03-23T11:21:12.548Z,94671.00
2023-03-23T11:25:14.076Z,94669.00
2023-03-23T11:29:12.455Z,94677.00
2023-03-23T11:33:12.394Z,94679.00
2023-03-23T11:37:12.403Z,94681.00
2023-03-23T11:41:12.330Z,94677.00
2023-03-23T11:45:12.289Z,94667.00
2023-03-23T11:49:23.237Z,94667.00
2023-03-23T11:53:13.252Z,94667.00
2023-03-23T11:57:12.208Z,94662.00
2023-03-23T12:01:12.130Z,94654.00
2023-03-23T12:05:12.093Z,94644.00
2023-03-23T12:09:12.080Z,94640.00
2023-03-23T12:13:16.024Z,94624.00
2023-03-23T12:17:12.962Z,94622.00
2023-03-23T12:21:11.935Z,94615.00
2023-03-23T12:25:12.107Z,94609.00
2023-03-23T12:29:12.168Z,94609.00
2023-03-23T12:33:12.152Z,94603.00
2023-03-23T12:37:12.176Z,94595.00
2023-03-23T12:41:12.231Z,94589.00
2023-03-23T12:45:12.340Z,94581.00
2023-03-23T12:49:12.453Z,94570.00
2023-03-23T12:53:12.576Z,94564.00
2023-03-23T12:57:12.693Z,94564.00
2023-03-23T13:01:12.670Z,94554.00
2023-03-23T13:05:12.681Z,94548.00
2023-03-23T13:09:12.722Z,94546.00
2023-03-23T13:13:12.766Z,94536.00
2023-03-23T13:17:13.703Z,94528.00
2023-03-23T13:21:12.674Z,94524.00
2023-03-23T13:25:12.706Z,94516.00
2023-03-23T13:29:12.625Z,94505.00
2023-03-23T13:33:12.587Z,94493.00
2023-03-23T13:37:12.569Z,94491.00
2023-03-23T13:41:12.547Z,94487.00
2023-03-23T13:45:12.489Z,94483.00
2023-03-23T13:49:16.597Z,94477.00
2023-03-23T13:53:12.422Z,94471.00
2023-03-23T13:57:12.380Z,94468.00
2023-03-23T14:01:12.337Z,94458.00
2023-03-23T14:05:12.296Z,94458.00
2023-03-23T14:09:12.254Z,94456.00
2023-03-23T14:13:12.437Z,94454.00
2023-03-23T14:17:12.677Z,94450.00
2023-03-23T14:21:12.606Z,94448.00
2023-03-23T14:25:12.576Z,94444.00
2023-03-23T14:29:12.535Z,94442.00
2023-03-23T14:33:12.496Z,94442.00
2023-03-23T14:37:12.452Z,94438.00
2023-03-23T14:41:12.409Z,94436.00
2023-03-23T14:45:12.380Z,94438.00
2023-03-23T14:49:12.333Z,94438.00
2023-03-23T14:53:12.325Z,94430.00
2023-03-23T14:57:12.295Z,94426.00
2023-03-23T15:01:12.232Z,94428.00
2023-03-23T15:05:12.166Z,94426.00
2023-03-23T15:09:12.175Z,94426.00
2023-03-23T15:13:12.108Z,94422.00
2023-03-23T15:17:12.082Z,94424.00
2023-03-23T15:21:12.041Z,94434.00
2023-03-23T15:25:12.004Z,94438.00
2023-03-23T15:29:11.976Z,94438.00
2023-03-23T15:33:13.502Z,94436.00
2023-03-23T15:37:20.227Z,94436.00
2023-03-23T15:41:12.886Z,94442.00
2023-03-23T15:45:11.844Z,94442.00
2023-03-23T15:49:11.999Z,94436.00
2023-03-23T15:53:11.910Z,94440.00
2023-03-23T15:57:11.911Z,94438.00
2023-03-23T16:01:11.918Z,94446.00
2023-03-23T16:05:11.800Z,94444.00
2023-03-23T16:09:11.814Z,94448.00
2023-03-23T16:13:11.744Z,94450.00
2023-03-23T16:17:11.723Z,94456.00
2023-03-23T16:21:11.665Z,94458.00
2023-03-23T16:25:11.625Z,94462.00
2023-03-23T16:29:18.873Z,94464.00
2023-03-23T16:33:12.627Z,94466.00
2023-03-23T16:37:11.581Z,94464.00
2023-03-23T16:41:11.747Z,94466.00
2023-03-23T16:45:11.697Z,94469.00
2023-03-23T16:49:11.668Z,94473.00
2023-03-23T16:53:11.639Z,94477.00
2023-03-23T16:57:11.664Z,94479.00
2023-03-23T17:01:11.603Z,94471.00
2023-03-23T17:05:11.530Z,94471.00
2023-03-23T17:09:11.476Z,94471.00
2023-03-23T17:13:11.833Z,94473.00
2023-03-23T17:17:11.435Z,94479.00
2023-03-23T17:21:11.357Z,94477.00
2023-03-23T17:25:11.352Z,94475.00
2023-03-23T17:29:11.457Z,94479.00
2023-03-23T17:33:11.570Z,94479.00
2023-03-23T17:37:11.604Z,94483.00
2023-03-23T17:41:11.793Z,94491.00
2023-03-23T17:45:11.986Z,94495.00
2023-03-23T17:49:12.034Z,94503.00
2023-03-23T17:53:12.182Z,94507.00
2023-03-23T17:57:12.289Z,94511.00
